sensor_id;sensor_type;location;lat;lon;timestamp;P1;durP1;ratioP1;P2;durP2;ratioP2
70426;SDS011;57872;55.432;37.248;2023-10-13T00:03:12;10.05;;;1.65;;
70426;SDS011;57872;55.432;37.248;2023-10-13T00:08:16;6.40;;;1.73;;
70426;SDS011;57872;55.432;37.248;2023-10-13T00:13:18;9.98;;;1.73;;
70426;SDS011;57872;55.432;37.248;2023-10-13T00:18:21;6.90;;;1.70;;
70426;SDS011;57872;55.432;37.248;2023-10-13T00:23:27;6.50;;;1.45;;
70426;SDS011;57872;55.432;37.248;2023-10-13T00:28:28;9.15;;;1.52;;
70426;SDS011;57872;55.432;37.248;2023-10-13T00:33:47;8.70;;;1.80;;
70426;SDS011;57872;55.432;37.248;2023-10-13T00:38:49;8.07;;;1.77;;
70426;SDS011;57872;55.432;37.248;2023-10-13T00:43:52;9.77;;;2.15;;
70426;SDS011;57872;55.432;37.248;2023-10-13T00:49:07;8.17;;;1.93;;
70426;SDS011;57872;55.432;37.248;2023-10-13T00:54:09;10.43;;;2.20;;
70426;SDS011;57872;55.432;37.248;2023-10-13T00:59:14;9.43;;;2.03;;
70426;SDS011;57872;55.432;37.248;2023-10-13T01:04:15;6.83;;;1.80;;
70426;SDS011;57872;55.432;37.248;2023-10-13T01:09:19;6.97;;;1.90;;
70426;SDS011;57872;55.432;37.248;2023-10-13T01:14:20;12.30;;;2.70;;
70426;SDS011;57872;55.432;37.248;2023-10-13T01:19:23;10.80;;;2.00;;
70426;SDS011;57872;55.432;37.248;2023-10-13T01:24:28;9.73;;;2.13;;
70426;SDS011;57872;55.432;37.248;2023-10-13T01:29:34;10.00;;;2.55;;
70426;SDS011;57872;55.432;37.248;2023-10-13T01:34:35;6.50;;;1.80;;
70426;SDS011;57872;55.432;37.248;2023-10-13T01:39:37;7.30;;;1.80;;
70426;SDS011;57872;55.432;37.248;2023-10-13T01:44:38;8.95;;;2.38;;
70426;SDS011;57872;55.432;37.248;2023-10-13T01:49:39;8.63;;;2.47;;
70426;SDS011;57872;55.432;37.248;2023-10-13T01:54:47;7.35;;;2.00;;
70426;SDS011;57872;55.432;37.248;2023-10-13T01:59:50;9.18;;;2.15;;
70426;SDS011;57872;55.432;37.248;2023-10-13T02:04:52;8.05;;;1.75;;
70426;SDS011;57872;55.432;37.248;2023-10-13T02:10:02;8.63;;;2.17;;
70426;SDS011;57872;55.432;37.248;2023-10-13T02:15:07;8.55;;;1.83;;
70426;SDS011;57872;55.432;37.248;2023-10-13T02:20:08;7.20;;;2.05;;
70426;SDS011;57872;55.432;37.248;2023-10-13T02:25:17;9.48;;;2.15;;
70426;SDS011;57872;55.432;37.248;2023-10-13T02:30:39;9.13;;;2.17;;
70426;SDS011;57872;55.432;37.248;2023-10-13T02:35:44;10.43;;;2.10;;
70426;SDS011;57872;55.432;37.248;2023-10-13T02:40:54;10.35;;;2.47;;
70426;SDS011;57872;55.432;37.248;2023-10-13T02:45:55;10.02;;;1.95;;
70426;SDS011;57872;55.432;37.248;2023-10-13T02:50:58;13.20;;;2.55;;
70426;SDS011;57872;55.432;37.248;2023-10-13T02:56:05;9.23;;;1.70;;
70426;SDS011;57872;55.432;37.248;2023-10-13T03:01:09;6.85;;;2.00;;
70426;SDS011;57872;55.432;37.248;2023-10-13T03:06:19;8.17;;;1.90;;
70426;SDS011;57872;55.432;37.248;2023-10-13T03:11:33;8.82;;;2.40;;
70426;SDS011;57872;55.432;37.248;2023-10-13T03:16:34;9.35;;;2.25;;
70426;SDS011;57872;55.432;37.248;2023-10-13T03:21:35;11.50;;;2.05;;
70426;SDS011;57872;55.432;37.248;2023-10-13T03:26:37;9.23;;;2.00;;
70426;SDS011;57872;55.432;37.248;2023-10-13T03:31:44;9.18;;;2.47;;
70426;SDS011;57872;55.432;37.248;2023-10-13T03:36:45;8.07;;;2.25;;
70426;SDS011;57872;55.432;37.248;2023-10-13T03:41:59;11.33;;;2.20;;
70426;SDS011;57872;55.432;37.248;2023-10-13T03:47:00;9.90;;;2.22;;
70426;SDS011;57872;55.432;37.248;2023-10-13T03:52:18;7.22;;;2.00;;
70426;SDS011;57872;55.432;37.248;2023-10-13T03:57:22;12.60;;;2.28;;
70426;SDS011;57872;55.432;37.248;2023-10-13T04:02:28;9.98;;;2.13;;
70426;SDS011;57872;55.432;37.248;2023-10-13T04:07:28;9.20;;;2.10;;
70426;SDS011;57872;55.432;37.248;2023-10-13T04:12:35;10.02;;;2.10;;
70426;SDS011;57872;55.432;37.248;2023-10-13T04:17:54;8.27;;;1.92;;
70426;SDS011;57872;55.432;37.248;2023-10-13T04:22:55;8.23;;;2.03;;
70426;SDS011;57872;55.432;37.248;2023-10-13T04:28:01;10.07;;;2.30;;
70426;SDS011;57872;55.432;37.248;2023-10-13T04:33:11;8.13;;;2.50;;
70426;SDS011;57872;55.432;37.248;2023-10-13T04:38:31;5.72;;;1.92;;
70426;SDS011;57872;55.432;37.248;2023-10-13T04:43:52;8.95;;;1.98;;
70426;SDS011;57872;55.432;37.248;2023-10-13T04:54:25;7.07;;;2.05;;
70426;SDS011;57872;55.432;37.248;2023-10-13T04:59:31;8.50;;;2.33;;
70426;SDS011;57872;55.432;37.248;2023-10-13T05:04:58;7.93;;;1.80;;
70426;SDS011;57872;55.432;37.248;2023-10-13T05:10:17;12.57;;;2.63;;
70426;SDS011;57872;55.432;37.248;2023-10-13T05:15:49;8.95;;;1.83;;
70426;SDS011;57872;55.432;37.248;2023-10-13T05:21:12;7.22;;;1.92;;
70426;SDS011;57872;55.432;37.248;2023-10-13T05:26:31;13.35;;;2.50;;
70426;SDS011;57872;55.432;37.248;2023-10-13T05:31:50;9.10;;;2.40;;
70426;SDS011;57872;55.432;37.248;2023-10-13T05:37:10;12.43;;;2.45;;
70426;SDS011;57872;55.432;37.248;2023-10-13T05:42:29;10.15;;;2.25;;
70426;SDS011;57872;55.432;37.248;2023-10-13T05:47:49;11.40;;;2.33;;
70426;SDS011;57872;55.432;37.248;2023-10-13T05:53:01;7.75;;;2.40;;
70426;SDS011;57872;55.432;37.248;2023-10-13T05:58:11;9.55;;;2.17;;
70426;SDS011;57872;55.432;37.248;2023-10-13T06:03:30;7.65;;;1.80;;
70426;SDS011;57872;55.432;37.248;2023-10-13T06:08:50;9.10;;;1.70;;
70426;SDS011;57872;55.432;37.248;2023-10-13T06:14:09;9.70;;;1.80;;
70426;SDS011;57872;55.432;37.248;2023-10-13T06:19:31;14.43;;;2.10;;
70426;SDS011;57872;55.432;37.248;2023-10-13T06:24:53;10.82;;;2.08;;
70426;SDS011;57872;55.432;37.248;2023-10-13T06:30:12;9.90;;;1.92;;
70426;SDS011;57872;55.432;37.248;2023-10-13T06:35:13;8.45;;;1.70;;
70426;SDS011;57872;55.432;37.248;2023-10-13T06:40:44;9.30;;;1.70;;
70426;SDS011;57872;55.432;37.248;2023-10-13T06:45:49;6.75;;;1.58;;
70426;SDS011;57872;55.432;37.248;2023-10-13T06:51:02;6.32;;;1.40;;
70426;SDS011;57872;55.432;37.248;2023-10-13T06:56:18;6.47;;;1.30;;
70426;SDS011;57872;55.432;37.248;2023-10-13T07:01:28;10.50;;;1.65;;
70426;SDS011;57872;55.432;37.248;2023-10-13T07:06:29;6.70;;;1.40;;
70426;SDS011;57872;55.432;37.248;2023-10-13T07:11:32;9.30;;;2.38;;
70426;SDS011;57872;55.432;37.248;2023-10-13T07:16:59;7.82;;;1.63;;
70426;SDS011;57872;55.432;37.248;2023-10-13T07:22:05;8.25;;;1.40;;
70426;SDS011;57872;55.432;37.248;2023-10-13T07:27:21;5.78;;;1.35;;
70426;SDS011;57872;55.432;37.248;2023-10-13T07:32:26;6.40;;;1.30;;
70426;SDS011;57872;55.432;37.248;2023-10-13T07:37:26;7.60;;;1.23;;
70426;SDS011;57872;55.432;37.248;2023-10-13T07:42:29;8.02;;;1.58;;
70426;SDS011;57872;55.432;37.248;2023-10-13T07:47:39;7.03;;;1.45;;
70426;SDS011;57872;55.432;37.248;2023-10-13T07:52:39;6.00;;;1.73;;
70426;SDS011;57872;55.432;37.248;2023-10-13T07:58:02;4.03;;;1.40;;
70426;SDS011;57872;55.432;37.248;2023-10-13T08:03:09;5.57;;;1.70;;
70426;SDS011;57872;55.432;37.248;2023-10-13T08:08:17;5.78;;;1.55;;
70426;SDS011;57872;55.432;37.248;2023-10-13T08:13:19;5.15;;;1.33;;
70426;SDS011;57872;55.432;37.248;2023-10-13T08:18:21;5.85;;;1.50;;
70426;SDS011;57872;55.432;37.248;2023-10-13T08:23:31;6.78;;;1.20;;
70426;SDS011;57872;55.432;37.248;2023-10-13T08:28:51;5.43;;;1.70;;
70426;SDS011;57872;55.432;37.248;2023-10-13T08:33:54;6.55;;;1.95;;
70426;SDS011;57872;55.432;37.248;2023-10-13T08:39:15;6.85;;;1.55;;
70426;SDS011;57872;55.432;37.248;2023-10-13T08:44:34;4.63;;;1.30;;
70426;SDS011;57872;55.432;37.248;2023-10-13T08:49:35;4.70;;;1.25;;
70426;SDS011;57872;55.432;37.248;2023-10-13T08:54:40;8.63;;;1.40;;
70426;SDS011;57872;55.432;37.248;2023-10-13T09:00:01;6.15;;;1.35;;
70426;SDS011;57872;55.432;37.248;2023-10-13T09:05:20;3.05;;;1.10;;
70426;SDS011;57872;55.432;37.248;2023-10-13T09:10:42;7.97;;;1.30;;
70426;SDS011;57872;55.432;37.248;2023-10-13T09:16:10;8.00;;;1.25;;
70426;SDS011;57872;55.432;37.248;2023-10-13T09:21:17;9.93;;;1.45;;
70426;SDS011;57872;55.432;37.248;2023-10-13T09:26:41;4.30;;;1.17;;
70426;SDS011;57872;55.432;37.248;2023-10-13T09:31:42;5.55;;;1.30;;
70426;SDS011;57872;55.432;37.248;2023-10-13T09:36:48;6.07;;;1.20;;
70426;SDS011;57872;55.432;37.248;2023-10-13T09:41:56;5.47;;;1.17;;
70426;SDS011;57872;55.432;37.248;2023-10-13T09:47:03;7.10;;;1.45;;
70426;SDS011;57872;55.432;37.248;2023-10-13T09:52:20;6.45;;;1.50;;
70426;SDS011;57872;55.432;37.248;2023-10-13T09:57:20;3.65;;;1.27;;
70426;SDS011;57872;55.432;37.248;2023-10-13T10:02:24;6.38;;;1.30;;
70426;SDS011;57872;55.432;37.248;2023-10-13T10:07:28;7.45;;;1.20;;
70426;SDS011;57872;55.432;37.248;2023-10-13T10:12:38;7.25;;;1.30;;
70426;SDS011;57872;55.432;37.248;2023-10-13T10:18:01;3.95;;;1.50;;
70426;SDS011;57872;55.432;37.248;2023-10-13T10:23:02;4.13;;;1.42;;
70426;SDS011;57872;55.432;37.248;2023-10-13T10:28:05;5.43;;;1.13;;
70426;SDS011;57872;55.432;37.248;2023-10-13T10:33:07;4.30;;;1.00;;
70426;SDS011;57872;55.432;37.248;2023-10-13T10:38:19;5.15;;;1.45;;
70426;SDS011;57872;55.432;37.248;2023-10-13T10:43:38;4.10;;;1.20;;
70426;SDS011;57872;55.432;37.248;2023-10-13T10:48:46;5.00;;;1.20;;
70426;SDS011;57872;55.432;37.248;2023-10-13T10:53:48;4.57;;;1.20;;
70426;SDS011;57872;55.432;37.248;2023-10-13T10:59:00;6.67;;;1.23;;
70426;SDS011;57872;55.432;37.248;2023-10-13T11:04:02;5.95;;;1.50;;
70426;SDS011;57872;55.432;37.248;2023-10-13T11:09:37;4.45;;;1.23;;
70426;SDS011;57872;55.432;37.248;2023-10-13T11:14:45;6.05;;;1.35;;
70426;SDS011;57872;55.432;37.248;2023-10-13T11:19:50;6.45;;;1.75;;
70426;SDS011;57872;55.432;37.248;2023-10-13T11:24:52;5.85;;;1.45;;
70426;SDS011;57872;55.432;37.248;2023-10-13T11:29:54;8.05;;;1.55;;
70426;SDS011;57872;55.432;37.248;2023-10-13T11:34:57;5.72;;;1.20;;
70426;SDS011;57872;55.432;37.248;2023-10-13T11:39:58;5.63;;;1.30;;
70426;SDS011;57872;55.432;37.248;2023-10-13T11:44:59;4.78;;;1.20;;
70426;SDS011;57872;55.432;37.248;2023-10-13T11:50:31;4.03;;;1.05;;
70426;SDS011;57872;55.432;37.248;2023-10-13T11:55:35;5.72;;;1.45;;
70426;SDS011;57872;55.432;37.248;2023-10-13T12:00:39;4.40;;;1.40;;
70426;SDS011;57872;55.432;37.248;2023-10-13T12:05:54;5.47;;;1.25;;
70426;SDS011;57872;55.432;37.248;2023-10-13T12:11:28;3.80;;;1.30;;
70426;SDS011;57872;55.432;37.248;2023-10-13T12:16:31;5.10;;;1.40;;
70426;SDS011;57872;55.432;37.248;2023-10-13T12:21:34;6.30;;;1.27;;
70426;SDS011;57872;55.432;37.248;2023-10-13T12:26:37;5.03;;;1.50;;
70426;SDS011;57872;55.432;37.248;2023-10-13T12:31:41;8.32;;;1.40;;
70426;SDS011;57872;55.432;37.248;2023-10-13T12:36:51;3.65;;;1.20;;
70426;SDS011;57872;55.432;37.248;2023-10-13T12:42:05;6.00;;;1.42;;
70426;SDS011;57872;55.432;37.248;2023-10-13T12:47:25;5.82;;;1.45;;
70426;SDS011;57872;55.432;37.248;2023-10-13T12:52:44;8.73;;;1.77;;
70426;SDS011;57872;55.432;37.248;2023-10-13T12:57:45;5.15;;;1.42;;
70426;SDS011;57872;55.432;37.248;2023-10-13T13:02:46;8.60;;;1.50;;
70426;SDS011;57872;55.432;37.248;2023-10-13T13:07:47;4.25;;;1.50;;
70426;SDS011;57872;55.432;37.248;2023-10-13T13:12:52;6.18;;;1.20;;
70426;SDS011;57872;55.432;37.248;2023-10-13T13:17:54;7.97;;;2.08;;
70426;SDS011;57872;55.432;37.248;2023-10-13T13:22:55;6.68;;;1.70;;
70426;SDS011;57872;55.432;37.248;2023-10-13T13:28:28;8.93;;;1.77;;
70426;SDS011;57872;55.432;37.248;2023-10-13T13:34:26;6.78;;;1.73;;
70426;SDS011;57872;55.432;37.248;2023-10-13T13:39:30;4.40;;;1.40;;
70426;SDS011;57872;55.432;37.248;2023-10-13T13:44:31;6.35;;;1.50;;
70426;SDS011;57872;55.432;37.248;2023-10-13T13:49:36;5.35;;;1.20;;
70426;SDS011;57872;55.432;37.248;2023-10-13T13:54:40;7.28;;;1.13;;
70426;SDS011;57872;55.432;37.248;2023-10-13T13:59:41;6.93;;;1.60;;
70426;SDS011;57872;55.432;37.248;2023-10-13T14:04:46;7.18;;;1.40;;
70426;SDS011;57872;55.432;37.248;2023-10-13T14:09:53;4.70;;;1.23;;
70426;SDS011;57872;55.432;37.248;2023-10-13T14:15:06;7.07;;;2.10;;
70426;SDS011;57872;55.432;37.248;2023-10-13T14:20:20;6.88;;;1.55;;
70426;SDS011;57872;55.432;37.248;2023-10-13T14:25:21;7.65;;;1.63;;
70426;SDS011;57872;55.432;37.248;2023-10-13T14:30:28;8.00;;;1.92;;
70426;SDS011;57872;55.432;37.248;2023-10-13T14:35:35;8.30;;;1.85;;
70426;SDS011;57872;55.432;37.248;2023-10-13T14:40:36;5.97;;;1.70;;
70426;SDS011;57872;55.432;37.248;2023-10-13T14:45:37;4.93;;;2.22;;
70426;SDS011;57872;55.432;37.248;2023-10-13T14:50:39;5.32;;;1.60;;
70426;SDS011;57872;55.432;37.248;2023-10-13T14:55:43;6.68;;;2.22;;
70426;SDS011;57872;55.432;37.248;2023-10-13T15:00:46;8.05;;;3.00;;
70426;SDS011;57872;55.432;37.248;2023-10-13T15:05:47;10.15;;;3.22;;
70426;SDS011;57872;55.432;37.248;2023-10-13T15:10:48;8.10;;;2.78;;
70426;SDS011;57872;55.432;37.248;2023-10-13T15:15:49;9.90;;;2.60;;
70426;SDS011;57872;55.432;37.248;2023-10-13T15:20:49;9.15;;;2.30;;
70426;SDS011;57872;55.432;37.248;2023-10-13T15:25:50;11.02;;;2.70;;
70426;SDS011;57872;55.432;37.248;2023-10-13T15:30:51;8.27;;;2.95;;
70426;SDS011;57872;55.432;37.248;2023-10-13T15:35:57;9.40;;;2.90;;
70426;SDS011;57872;55.432;37.248;2023-10-13T15:40:58;8.88;;;2.67;;
70426;SDS011;57872;55.432;37.248;2023-10-13T15:45:59;8.23;;;2.60;;
70426;SDS011;57872;55.432;37.248;2023-10-13T15:50:59;10.25;;;3.40;;
70426;SDS011;57872;55.432;37.248;2023-10-13T15:56:04;7.85;;;2.65;;
70426;SDS011;57872;55.432;37.248;2023-10-13T16:01:23;9.88;;;2.88;;
70426;SDS011;57872;55.432;37.248;2023-10-13T16:06:24;8.10;;;2.90;;
70426;SDS011;57872;55.432;37.248;2023-10-13T16:11:25;6.57;;;2.28;;
70426;SDS011;57872;55.432;37.248;2023-10-13T16:16:26;6.72;;;2.53;;
70426;SDS011;57872;55.432;37.248;2023-10-13T16:21:27;8.32;;;3.05;;
70426;SDS011;57872;55.432;37.248;2023-10-13T16:26:28;8.50;;;2.80;;
70426;SDS011;57872;55.432;37.248;2023-10-13T16:31:31;7.82;;;2.47;;
70426;SDS011;57872;55.432;37.248;2023-10-13T16:36:32;11.60;;;2.42;;
70426;SDS011;57872;55.432;37.248;2023-10-13T16:41:32;7.28;;;2.40;;
70426;SDS011;57872;55.432;37.248;2023-10-13T16:46:33;8.02;;;2.70;;
70426;SDS011;57872;55.432;37.248;2023-10-13T16:51:34;7.63;;;2.40;;
70426;SDS011;57872;55.432;37.248;2023-10-13T16:56:35;9.60;;;2.70;;
70426;SDS011;57872;55.432;37.248;2023-10-13T17:06:39;10.80;;;3.05;;
70426;SDS011;57872;55.432;37.248;2023-10-13T17:11:40;6.00;;;2.50;;
70426;SDS011;57872;55.432;37.248;2023-10-13T17:16:41;6.65;;;2.83;;
70426;SDS011;57872;55.432;37.248;2023-10-13T17:21:44;9.07;;;2.78;;
70426;SDS011;57872;55.432;37.248;2023-10-13T17:26:46;12.10;;;3.17;;
70426;SDS011;57872;55.432;37.248;2023-10-13T17:31:50;8.15;;;2.63;;
70426;SDS011;57872;55.432;37.248;2023-10-13T17:36:50;7.80;;;2.67;;
70426;SDS011;57872;55.432;37.248;2023-10-13T17:41:51;7.20;;;2.42;;
70426;SDS011;57872;55.432;37.248;2023-10-13T17:46:52;9.82;;;3.55;;
70426;SDS011;57872;55.432;37.248;2023-10-13T17:51:53;9.27;;;2.38;;
70426;SDS011;57872;55.432;37.248;2023-10-13T17:56:53;9.93;;;2.88;;
70426;SDS011;57872;55.432;37.248;2023-10-13T18:01:54;10.85;;;2.90;;
70426;SDS011;57872;55.432;37.248;2023-10-13T18:06:55;8.07;;;2.65;;
70426;SDS011;57872;55.432;37.248;2023-10-13T18:11:56;7.55;;;2.60;;
70426;SDS011;57872;55.432;37.248;2023-10-13T18:16:57;10.73;;;2.80;;
70426;SDS011;57872;55.432;37.248;2023-10-13T18:21:58;7.90;;;2.80;;
70426;SDS011;57872;55.432;37.248;2023-10-13T18:26:59;9.93;;;3.72;;
70426;SDS011;57872;55.432;37.248;2023-10-13T18:32:00;7.18;;;2.65;;
70426;SDS011;57872;55.432;37.248;2023-10-13T18:37:01;8.48;;;2.92;;
70426;SDS011;57872;55.432;37.248;2023-10-13T18:42:02;11.68;;;3.40;;
70426;SDS011;57872;55.432;37.248;2023-10-13T18:47:03;8.02;;;2.80;;
70426;SDS011;57872;55.432;37.248;2023-10-13T18:52:04;10.20;;;2.90;;
70426;SDS011;57872;55.432;37.248;2023-10-13T18:57:05;7.95;;;3.05;;
70426;SDS011;57872;55.432;37.248;2023-10-13T19:02:06;9.98;;;3.22;;
70426;SDS011;57872;55.432;37.248;2023-10-13T19:07:07;7.30;;;3.33;;
70426;SDS011;57872;55.432;37.248;2023-10-13T19:12:09;8.48;;;2.70;;
70426;SDS011;57872;55.432;37.248;2023-10-13T19:17:09;9.02;;;3.42;;
70426;SDS011;57872;55.432;37.248;2023-10-13T19:22:10;9.55;;;2.70;;
70426;SDS011;57872;55.432;37.248;2023-10-13T19:27:12;8.50;;;3.00;;
70426;SDS011;57872;55.432;37.248;2023-10-13T19:32:14;12.45;;;3.15;;
70426;SDS011;57872;55.432;37.248;2023-10-13T19:37:14;8.75;;;3.08;;
70426;SDS011;57872;55.432;37.248;2023-10-13T19:42:15;10.07;;;3.13;;
70426;SDS011;57872;55.432;37.248;2023-10-13T19:47:21;8.15;;;2.65;;
70426;SDS011;57872;55.432;37.248;2023-10-13T19:52:21;9.45;;;2.80;;
70426;SDS011;57872;55.432;37.248;2023-10-13T19:57:24;8.70;;;3.00;;
70426;SDS011;57872;55.432;37.248;2023-10-13T20:02:26;8.73;;;3.35;;
70426;SDS011;57872;55.432;37.248;2023-10-13T20:07:28;13.30;;;4.43;;
70426;SDS011;57872;55.432;37.248;2023-10-13T20:12:28;12.30;;;4.68;;
70426;SDS011;57872;55.432;37.248;2023-10-13T20:17:29;18.30;;;8.25;;
70426;SDS011;57872;55.432;37.248;2023-10-13T20:22:30;16.45;;;5.55;;
70426;SDS011;57872;55.432;37.248;2023-10-13T20:27:30;24.70;;;6.65;;
70426;SDS011;57872;55.432;37.248;2023-10-13T20:32:31;20.95;;;6.75;;
70426;SDS011;57872;55.432;37.248;2023-10-13T20:37:35;12.82;;;4.82;;
70426;SDS011;57872;55.432;37.248;2023-10-13T20:42:35;13.05;;;5.45;;
70426;SDS011;57872;55.432;37.248;2023-10-13T20:47:36;10.75;;;4.70;;
70426;SDS011;57872;55.432;37.248;2023-10-13T20:52:36;21.23;;;6.45;;
70426;SDS011;57872;55.432;37.248;2023-10-13T20:57:37;32.42;;;10.70;;
70426;SDS011;57872;55.432;37.248;2023-10-13T21:02:38;25.10;;;9.57;;
70426;SDS011;57872;55.432;37.248;2023-10-13T21:07:42;24.15;;;9.15;;
70426;SDS011;57872;55.432;37.248;2023-10-13T21:12:43;22.45;;;7.10;;
70426;SDS011;57872;55.432;37.248;2023-10-13T21:17:48;19.92;;;6.32;;
70426;SDS011;57872;55.432;37.248;2023-10-13T21:22:49;17.40;;;5.70;;
70426;SDS011;57872;55.432;37.248;2023-10-13T21:27:54;15.63;;;5.30;;
70426;SDS011;57872;55.432;37.248;2023-10-13T21:32:56;14.93;;;4.47;;
70426;SDS011;57872;55.432;37.248;2023-10-13T21:37:57;15.27;;;5.20;;
70426;SDS011;57872;55.432;37.248;2023-10-13T21:42:58;12.02;;;5.03;;
70426;SDS011;57872;55.432;37.248;2023-10-13T21:48:01;12.68;;;4.80;;
70426;SDS011;57872;55.432;37.248;2023-10-13T21:53:06;13.25;;;3.85;;
70426;SDS011;57872;55.432;37.248;2023-10-13T21:58:07;19.67;;;8.80;;
70426;SDS011;57872;55.432;37.248;2023-10-13T22:03:08;20.35;;;6.65;;
70426;SDS011;57872;55.432;37.248;2023-10-13T22:08:12;30.75;;;8.85;;
70426;SDS011;57872;55.432;37.248;2023-10-13T22:13:13;42.00;;;13.25;;
70426;SDS011;57872;55.432;37.248;2023-10-13T22:18:15;25.73;;;6.88;;
70426;SDS011;57872;55.432;37.248;2023-10-13T22:23:16;14.20;;;4.07;;
70426;SDS011;57872;55.432;37.248;2023-10-13T22:28:16;10.13;;;3.47;;
70426;SDS011;57872;55.432;37.248;2023-10-13T22:33:18;11.15;;;3.95;;
70426;SDS011;57872;55.432;37.248;2023-10-13T22:38:19;11.57;;;4.10;;
70426;SDS011;57872;55.432;37.248;2023-10-13T22:43:20;9.98;;;3.88;;
70426;SDS011;57872;55.432;37.248;2023-10-13T22:48:21;11.90;;;3.33;;
70426;SDS011;57872;55.432;37.248;2023-10-13T22:53:22;11.02;;;3.33;;
70426;SDS011;57872;55.432;37.248;2023-10-13T22:58:23;11.07;;;3.55;;
70426;SDS011;57872;55.432;37.248;2023-10-13T23:03:25;9.85;;;3.85;;
70426;SDS011;57872;55.432;37.248;2023-10-13T23:08:35;10.30;;;3.15;;
70426;SDS011;57872;55.432;37.248;2023-10-13T23:13:38;10.32;;;3.47;;
70426;SDS011;57872;55.432;37.248;2023-10-13T23:18:39;21.23;;;10.65;;
70426;SDS011;57872;55.432;37.248;2023-10-13T23:23:45;10.00;;;3.80;;
70426;SDS011;57872;55.432;37.248;2023-10-13T23:28:49;9.68;;;3.47;;
70426;SDS011;57872;55.432;37.248;2023-10-13T23:33:51;8.82;;;3.95;;
70426;SDS011;57872;55.432;37.248;2023-10-13T23:38:55;8.15;;;3.28;;
70426;SDS011;57872;55.432;37.248;2023-10-13T23:43:56;8.00;;;3.00;;
70426;SDS011;57872;55.432;37.248;2023-10-13T23:49:00;11.55;;;3.47;;
70426;SDS011;57872;55.432;37.248;2023-10-13T23:54:01;12.35;;;3.58;;
70426;SDS011;57872;55.432;37.248;2023-10-13T23:59:17;11.43;;;4.30;;
